Aeroporto :
LOGIN :

Iscrizione | Disclaimer

   EN    FR    IT 

 










Sommario :    VFR   VFR Marginale   IFR   IFR Intensivo   IFR Molto Intensivo
Visibilità : 
Base nubi : 
>= 8 km
>= 3000ft
5 / 8 km
1000 / 3000 ft
1500m / 5 km
500 / 1000 ft
800 / 1500m
200 / 500 ft
< 800m
< 200 ft
Simboli :   Temporali  Nebbia  Neve Forte  Precipitazioni Forti  Vento > 20 kt
SIGMETs :   Varie  Temporali  Ghiacco  Turbolenza  Onda orograficha  Ceneri Vulcaniche






- Altitudine del aeroporto : 405 ft
- Codice IATA : ODH


EGVO - RAF Odiham

ULTIMO METAR :
  • 230850Z 26011KT 9999 BKN010 OVC048 17/14 Q1017 TEMPO SCT020 RMK GRN TEMPO WHT

METARs OBSOLETI :
  • 230820Z 25011KT 9999 BKN011 16/13 Q1016 NOSIG RMK GRN GRN
  • 230750Z 25011KT 9999 -DZ OVC012 16/13 Q1016 RMK GRN
  • 230720Z 25011KT 9999 BKN012 16/13 Q1016 RMK GRN
  • 230650Z AUTO 24012KT 9999 BKN009/// OVC037/// 16/13 Q1016
  • 230620Z AUTO 25012KT 9999 SCT009/// OVC037/// 16/13 Q1016
  • 230550Z AUTO 24010KT 9999 FEW011/// OVC037/// 16/13 Q1015
  • 230520Z AUTO 24011KT 9999 SCT009/// OVC035/// 16/14 Q1015
  • 230450Z AUTO 25008KT 9999 // OVC024/// 16/14 Q1015
  • 230420Z AUTO 25008KT 9999 // OVC019/// 16/14 Q1015
  • 230350Z AUTO 26012KT 6000 -RADZ OVC006/// 16/14 Q1014

TAF TAF EGVO
Valido dal 23 a 09 ore il 23 a 21 ore UTC


230716Z 2309/2321 29010KT 9999 BKN030
TEMPO 2309/2311 BKN012
PROB30
TEMPO 2311/2314 SCT020



MetMap, La meteo Aeronautica in un colpo d'occhio ! - Copyright ORBIFLY Dicembre 2007 - Disclaimer

ORBIFLY MET'MAP TEAM :

Programmazione e sviluppo : Alexandra Zaïnal
Concezione : Baudouin d'Aumeries
Supporto tecnico e logistico : Manuel Goepfert
Aiuto : Marc-Olivier Méhu
Aiuto per la traduzione : Arnaldo La Scala




FONTI E CREDITI :

   NOAA